Antonia, Missouri
Current Conditions -  °F | °C
As of 1:53 PM on Monday 24 Nov 2014 (Local Time) from KCPS Reporting Station
Overcast Overcast  
Wind Chill:   Ceiling: 4200
Heat Index:   Visibility: 10mi
Dew Point: -1°   Wind: 15mph
Humidity: 62%   Direction: 270°W
Pressure: 29.76"   Gusts: NA
Location:  38.3874°N, 90.4319°W
Report Text: KCPS 241953Z 27013KT 10SM BKN042 OVC050 06/M01 A2976 RMK AO2 PK WND 25027/1902 SLP078 T00561011
Loading
Personal Weather Stations






























Interactive Weather Map New forecast layout! Learn more

10-Day Weather Forecast

Advertisements
Track Severe Weather on mobile